sensor_id;sensor_type;location;lat;lon;timestamp;pressure;altitude;pressure_sealevel;temperature;humidity
32237;BME280;18726;44.732;10.550;2023-05-11T00:02:40;100668.78;;;14.27;100.00
32237;BME280;18726;44.732;10.550;2023-05-11T00:05:46;100664.72;;;14.17;100.00
32237;BME280;18726;44.732;10.550;2023-05-11T00:08:50;100660.78;;;14.11;100.00
32237;BME280;18726;44.732;10.550;2023-05-11T00:11:54;100659.56;;;14.08;100.00
32237;BME280;18726;44.732;10.550;2023-05-11T00:14:58;100653.69;;;14.06;100.00
32237;BME280;18726;44.732;10.550;2023-05-11T00:18:02;100654.75;;;13.98;100.00
32237;BME280;18726;44.732;10.550;2023-05-11T00:21:06;100653.59;;;13.99;100.00
32237;BME280;18726;44.732;10.550;2023-05-11T00:24:10;100652.75;;;13.95;100.00
32237;BME280;18726;44.732;10.550;2023-05-11T00:27:14;100644.13;;;13.93;100.00
32237;BME280;18726;44.732;10.550;2023-05-11T00:30:18;100641.72;;;13.88;100.00
32237;BME280;18726;44.732;10.550;2023-05-11T00:33:22;100635.53;;;13.91;100.00
32237;BME280;18726;44.732;10.550;2023-05-11T00:36:26;100635.53;;;13.91;100.00
32237;BME280;18726;44.732;10.550;2023-05-11T00:39:30;100637.09;;;13.92;100.00
32237;BME280;18726;44.732;10.550;2023-05-11T00:42:34;100637.09;;;13.92;100.00
32237;BME280;18726;44.732;10.550;2023-05-11T00:45:37;100632.38;;;13.89;100.00
32237;BME280;18726;44.732;10.550;2023-05-11T00:48:42;100629.16;;;13.80;100.00
32237;BME280;18726;44.732;10.550;2023-05-11T00:51:46;100626.03;;;13.81;100.00
32237;BME280;18726;44.732;10.550;2023-05-11T00:54:50;100624.41;;;13.77;100.00
32237;BME280;18726;44.732;10.550;2023-05-11T00:57:54;100623.25;;;13.78;100.00
32237;BME280;18726;44.732;10.550;2023-05-11T01:00:58;100622.09;;;13.79;100.00
32237;BME280;18726;44.732;10.550;2023-05-11T01:04:02;100621.31;;;13.78;100.00
32237;BME280;18726;44.732;10.550;2023-05-11T01:07:15;100619.06;;;13.84;100.00
32237;BME280;18726;44.732;10.550;2023-05-11T01:13:55;100627.75;;;13.93;100.00
32237;BME280;18726;44.732;10.550;2023-05-11T01:17:15;100616.41;;;13.91;100.00
32237;BME280;18726;44.732;10.550;2023-05-11T01:20:25;100618.16;;;13.76;100.00
32237;BME280;18726;44.732;10.550;2023-05-11T01:33:29;100603.63;;;13.42;100.00
32237;BME280;18726;44.732;10.550;2023-05-11T01:36:36;100611.81;;;13.42;100.00
32237;BME280;18726;44.732;10.550;2023-05-11T01:39:48;100604.38;;;13.39;100.00
32237;BME280;18726;44.732;10.550;2023-05-11T01:46:01;100605.09;;;13.36;100.00
32237;BME280;18726;44.732;10.550;2023-05-11T01:49:06;100608.25;;;13.38;100.00
32237;BME280;18726;44.732;10.550;2023-05-11T01:52:10;100600.06;;;13.38;100.00
32237;BME280;18726;44.732;10.550;2023-05-11T01:55:18;100606.25;;;13.35;100.00
32237;BME280;18726;44.732;10.550;2023-05-11T01:58:23;100607.84;;;13.36;100.00
32237;BME280;18726;44.732;10.550;2023-05-11T02:01:28;100604.25;;;13.32;100.00
32237;BME280;18726;44.732;10.550;2023-05-11T02:04:34;100605.84;;;13.33;100.00
32237;BME280;18726;44.732;10.550;2023-05-11T02:07:41;100614.31;;;13.28;100.00
32237;BME280;18726;44.732;10.550;2023-05-11T02:10:47;100608.88;;;13.28;100.00
32237;BME280;18726;44.732;10.550;2023-05-11T02:13:54;100613.56;;;13.28;100.00
32237;BME280;18726;44.732;10.550;2023-05-11T02:17:00;100606.56;;;13.30;100.00
32237;BME280;18726;44.732;10.550;2023-05-11T02:20:06;100610.03;;;13.27;100.00
32237;BME280;18726;44.732;10.550;2023-05-11T02:23:12;100622.09;;;13.26;100.00
32237;BME280;18726;44.732;10.550;2023-05-11T02:26:15;100612.34;;;13.25;100.00
32237;BME280;18726;44.732;10.550;2023-05-11T02:29:19;100608.84;;;13.25;100.00
32237;BME280;18726;44.732;10.550;2023-05-11T02:32:23;100608.06;;;13.24;100.00
32237;BME280;18726;44.732;10.550;2023-05-11T02:35:29;100608.06;;;13.24;100.00
32237;BME280;18726;44.732;10.550;2023-05-11T02:38:37;100599.44;;;13.22;100.00
32237;BME280;18726;44.732;10.550;2023-05-11T02:41:45;100600.16;;;13.19;100.00
32237;BME280;18726;44.732;10.550;2023-05-11T02:44:54;100602.91;;;13.19;100.00
32237;BME280;18726;44.732;10.550;2023-05-11T02:48:06;100588.84;;;13.17;100.00
32237;BME280;18726;44.732;10.550;2023-05-11T02:51:11;100592.72;;;13.16;100.00
32237;BME280;18726;44.732;10.550;2023-05-11T02:54:23;100586.97;;;13.21;100.00
32237;BME280;18726;44.732;10.550;2023-05-11T02:57:29;100593.56;;;13.20;100.00
32237;BME280;18726;44.732;10.550;2023-05-11T03:00:38;100583.38;;;13.17;100.00
32237;BME280;18726;44.732;10.550;2023-05-11T03:03:42;100584.53;;;13.16;100.00
32237;BME280;18726;44.732;10.550;2023-05-11T03:06:46;100585.00;;;13.22;100.00
32237;BME280;18726;44.732;10.550;2023-05-11T03:09:49;100587.81;;;13.25;100.00
32237;BME280;18726;44.732;10.550;2023-05-11T03:12:54;100579.56;;;13.22;100.00
32237;BME280;18726;44.732;10.550;2023-05-11T03:15:59;100583.81;;;13.19;100.00
32237;BME280;18726;44.732;10.550;2023-05-11T03:19:06;100579.94;;;13.20;100.00
32237;BME280;18726;44.732;10.550;2023-05-11T03:22:10;100581.44;;;13.17;100.00
32237;BME280;18726;44.732;10.550;2023-05-11T03:25:16;100585.22;;;13.13;100.00
32237;BME280;18726;44.732;10.550;2023-05-11T03:28:21;100576.63;;;13.11;100.00
32237;BME280;18726;44.732;10.550;2023-05-11T03:31:34;100573.53;;;13.12;100.00
32237;BME280;18726;44.732;10.550;2023-05-11T03:34:38;100567.66;;;13.10;100.00
32237;BME280;18726;44.732;10.550;2023-05-11T03:37:43;100566.88;;;13.10;100.00
32237;BME280;18726;44.732;10.550;2023-05-11T03:40:48;100567.13;;;13.24;100.00
32237;BME280;18726;44.732;10.550;2023-05-11T03:43:55;100571.75;;;13.20;100.00
32237;BME280;18726;44.732;10.550;2023-05-11T03:47:02;100572.25;;;13.29;100.00
32237;BME280;18726;44.732;10.550;2023-05-11T03:50:07;100564.50;;;13.31;100.00
32237;BME280;18726;44.732;10.550;2023-05-11T03:53:12;100564.34;;;13.21;100.00
32237;BME280;18726;44.732;10.550;2023-05-11T03:56:15;100558.84;;;13.17;100.00
32237;BME280;18726;44.732;10.550;2023-05-11T03:59:19;100560.31;;;13.14;100.00
32237;BME280;18726;44.732;10.550;2023-05-11T04:02:23;100561.19;;;13.18;100.00
32237;BME280;18726;44.732;10.550;2023-05-11T04:05:27;100563.84;;;13.15;100.00
32237;BME280;18726;44.732;10.550;2023-05-11T04:08:31;100564.28;;;13.17;100.00
32237;BME280;18726;44.732;10.550;2023-05-11T04:11:36;100563.56;;;13.20;100.00
32237;BME280;18726;44.732;10.550;2023-05-11T04:14:40;100562.41;;;13.21;100.00
32237;BME280;18726;44.732;10.550;2023-05-11T04:17:43;100561.31;;;13.26;100.00
32237;BME280;18726;44.732;10.550;2023-05-11T04:20:48;100562.84;;;13.23;100.00
32237;BME280;18726;44.732;10.550;2023-05-11T04:23:51;100568.34;;;13.27;100.00
32237;BME280;18726;44.732;10.550;2023-05-11T04:26:55;100562.91;;;13.30;100.00
32237;BME280;18726;44.732;10.550;2023-05-11T04:30:00;100573.09;;;13.33;100.00
32237;BME280;18726;44.732;10.550;2023-05-11T04:33:05;100565.44;;;13.42;100.00
32237;BME280;18726;44.732;10.550;2023-05-11T04:36:09;100567.06;;;13.47;100.00
32237;BME280;18726;44.732;10.550;2023-05-11T04:39:12;100564.47;;;13.58;100.00
32237;BME280;18726;44.732;10.550;2023-05-11T04:42:16;100563.41;;;13.66;100.00
32237;BME280;18726;44.732;10.550;2023-05-11T04:45:24;100563.19;;;13.78;100.00
32237;BME280;18726;44.732;10.550;2023-05-11T04:48:28;100569.50;;;13.82;100.00
32237;BME280;18726;44.732;10.550;2023-05-11T04:51:32;100563.94;;;13.75;100.00
32237;BME280;18726;44.732;10.550;2023-05-11T04:54:36;100561.22;;;13.75;100.00
32237;BME280;18726;44.732;10.550;2023-05-11T04:57:41;100567.41;;;13.72;100.00
32237;BME280;18726;44.732;10.550;2023-05-11T05:00:45;100565.59;;;13.83;100.00
32237;BME280;18726;44.732;10.550;2023-05-11T05:03:49;100570.25;;;14.12;100.00
32237;BME280;18726;44.732;10.550;2023-05-11T05:06:53;100569.56;;;14.23;100.00
32237;BME280;18726;44.732;10.550;2023-05-11T05:09:58;100567.88;;;14.44;100.00
32237;BME280;18726;44.732;10.550;2023-05-11T05:13:03;100563.75;;;14.61;100.00
32237;BME280;18726;44.732;10.550;2023-05-11T05:16:07;100554.53;;;14.80;100.00
32237;BME280;18726;44.732;10.550;2023-05-11T05:19:11;100561.63;;;14.84;100.00
32237;BME280;18726;44.732;10.550;2023-05-11T05:22:15;100563.31;;;15.00;100.00
32237;BME280;18726;44.732;10.550;2023-05-11T05:25:19;100565.34;;;15.10;100.00
32237;BME280;18726;44.732;10.550;2023-05-11T05:28:24;100571.66;;;15.17;100.00
32237;BME280;18726;44.732;10.550;2023-05-11T05:31:28;100569.75;;;15.25;100.00
32237;BME280;18726;44.732;10.550;2023-05-11T05:34:32;100560.06;;;15.38;100.00
32237;BME280;18726;44.732;10.550;2023-05-11T05:37:36;100559.34;;;15.48;100.00
32237;BME280;18726;44.732;10.550;2023-05-11T05:40:40;100558.66;;;15.59;100.00
32237;BME280;18726;44.732;10.550;2023-05-11T05:43:45;100557.50;;;15.67;100.00
32237;BME280;18726;44.732;10.550;2023-05-11T05:46:49;100559.16;;;15.82;100.00
32237;BME280;18726;44.732;10.550;2023-05-11T05:49:54;100561.16;;;15.92;100.00
32237;BME280;18726;44.732;10.550;2023-05-11T05:52:58;100560.41;;;16.02;100.00
32237;BME280;18726;44.732;10.550;2023-05-11T05:56:04;100561.66;;;16.15;100.00
32237;BME280;18726;44.732;10.550;2023-05-11T05:59:08;100567.19;;;16.37;100.00
32237;BME280;18726;44.732;10.550;2023-05-11T06:02:14;100571.91;;;16.54;100.00
32237;BME280;18726;44.732;10.550;2023-05-11T06:05:18;100568.84;;;16.73;100.00
32237;BME280;18726;44.732;10.550;2023-05-11T06:08:22;100569.25;;;16.97;100.00
32237;BME280;18726;44.732;10.550;2023-05-11T06:11:26;100560.19;;;17.21;100.00
32237;BME280;18726;44.732;10.550;2023-05-11T06:14:30;100568.78;;;17.51;100.00
32237;BME280;18726;44.732;10.550;2023-05-11T06:17:34;100570.19;;;18.06;100.00
32237;BME280;18726;44.732;10.550;2023-05-11T06:20:38;100580.25;;;18.37;100.00
32237;BME280;18726;44.732;10.550;2023-05-11T06:23:42;100575.78;;;18.61;100.00
32237;BME280;18726;44.732;10.550;2023-05-11T06:26:46;100574.84;;;18.82;100.00
32237;BME280;18726;44.732;10.550;2023-05-11T06:29:51;100572.72;;;19.04;100.00
32237;BME280;18726;44.732;10.550;2023-05-11T06:32:56;100571.06;;;19.10;100.00
32237;BME280;18726;44.732;10.550;2023-05-11T06:36:06;100574.03;;;19.33;100.00
32237;BME280;18726;44.732;10.550;2023-05-11T06:39:12;100576.63;;;19.47;100.00
32237;BME280;18726;44.732;10.550;2023-05-11T06:42:16;100581.75;;;19.45;100.00
32237;BME280;18726;44.732;10.550;2023-05-11T06:45:19;100580.00;;;19.66;100.00
32237;BME280;18726;44.732;10.550;2023-05-11T06:48:24;100581.31;;;19.92;100.00
32237;BME280;18726;44.732;10.550;2023-05-11T06:51:28;100578.63;;;20.15;100.00
32237;BME280;18726;44.732;10.550;2023-05-11T06:54:32;100581.72;;;20.20;100.00
32237;BME280;18726;44.732;10.550;2023-05-11T06:57:36;100583.00;;;20.43;100.00
32237;BME280;18726;44.732;10.550;2023-05-11T07:00:39;100581.63;;;20.81;100.00
32237;BME280;18726;44.732;10.550;2023-05-11T07:03:43;100581.81;;;21.21;100.00
32237;BME280;18726;44.732;10.550;2023-05-11T07:06:47;100589.22;;;21.47;100.00
32237;BME280;18726;44.732;10.550;2023-05-11T07:09:51;100594.94;;;21.80;100.00
32237;BME280;18726;44.732;10.550;2023-05-11T07:12:54;100587.03;;;21.98;100.00
32237;BME280;18726;44.732;10.550;2023-05-11T07:15:57;100592.84;;;22.23;100.00
32237;BME280;18726;44.732;10.550;2023-05-11T07:19:01;100590.81;;;21.88;100.00
32237;BME280;18726;44.732;10.550;2023-05-11T07:22:05;100603.97;;;22.40;100.00
32237;BME280;18726;44.732;10.550;2023-05-11T07:25:09;100607.03;;;22.98;100.00
32237;BME280;18726;44.732;10.550;2023-05-11T07:28:14;100597.22;;;23.26;100.00
32237;BME280;18726;44.732;10.550;2023-05-11T07:31:17;100602.00;;;23.70;100.00
32237;BME280;18726;44.732;10.550;2023-05-11T07:34:21;100590.09;;;24.53;87.04
32237;BME280;18726;44.732;10.550;2023-05-11T07:37:24;100590.25;;;26.00;73.20
32237;BME280;18726;44.732;10.550;2023-05-11T07:40:28;100598.84;;;27.53;65.92
32237;BME280;18726;44.732;10.550;2023-05-11T07:43:31;100600.19;;;28.13;64.59
32237;BME280;18726;44.732;10.550;2023-05-11T07:46:35;100601.97;;;28.43;64.26
32237;BME280;18726;44.732;10.550;2023-05-11T07:49:39;100587.47;;;28.96;59.80
32237;BME280;18726;44.732;10.550;2023-05-11T07:52:44;100592.47;;;29.16;56.79
32237;BME280;18726;44.732;10.550;2023-05-11T07:55:47;100587.25;;;28.76;57.73
32237;BME280;18726;44.732;10.550;2023-05-11T07:58:51;100582.88;;;28.51;65.19
32237;BME280;18726;44.732;10.550;2023-05-11T08:01:55;100596.00;;;28.60;60.21
32237;BME280;18726;44.732;10.550;2023-05-11T08:04:59;100593.19;;;29.02;62.13
32237;BME280;18726;44.732;10.550;2023-05-11T08:08:03;100587.00;;;28.22;61.02
32237;BME280;18726;44.732;10.550;2023-05-11T08:11:07;100592.44;;;28.08;66.67
32237;BME280;18726;44.732;10.550;2023-05-11T08:14:11;100588.72;;;28.11;63.21
32237;BME280;18726;44.732;10.550;2023-05-11T08:17:16;100593.69;;;28.07;62.78
32237;BME280;18726;44.732;10.550;2023-05-11T08:20:19;100590.47;;;27.90;66.66
32237;BME280;18726;44.732;10.550;2023-05-11T08:23:23;100582.44;;;27.65;65.63
32237;BME280;18726;44.732;10.550;2023-05-11T08:26:26;100585.84;;;27.41;69.78
32237;BME280;18726;44.732;10.550;2023-05-11T08:29:30;100587.66;;;27.17;70.10
32237;BME280;18726;44.732;10.550;2023-05-11T08:32:34;100595.47;;;26.42;57.68
32237;BME280;18726;44.732;10.550;2023-05-11T08:35:38;100587.47;;;26.00;75.64
32237;BME280;18726;44.732;10.550;2023-05-11T08:38:42;100579.88;;;25.35;76.93
32237;BME280;18726;44.732;10.550;2023-05-11T08:41:48;100590.06;;;24.91;84.04
32237;BME280;18726;44.732;10.550;2023-05-11T08:44:54;100578.19;;;24.65;96.15
32237;BME280;18726;44.732;10.550;2023-05-11T08:47:58;100578.81;;;24.18;86.16
32237;BME280;18726;44.732;10.550;2023-05-11T08:51:02;100583.66;;;23.89;93.15
32237;BME280;18726;44.732;10.550;2023-05-11T08:54:06;100584.63;;;23.53;94.32
32237;BME280;18726;44.732;10.550;2023-05-11T08:57:12;100583.75;;;23.40;100.00
32237;BME280;18726;44.732;10.550;2023-05-11T09:00:16;100584.25;;;23.06;99.01
32237;BME280;18726;44.732;10.550;2023-05-11T09:03:20;100587.44;;;22.88;100.00
32237;BME280;18726;44.732;10.550;2023-05-11T09:06:25;100586.09;;;22.80;100.00
32237;BME280;18726;44.732;10.550;2023-05-11T09:09:29;100594.94;;;22.72;100.00
32237;BME280;18726;44.732;10.550;2023-05-11T09:12:34;100586.50;;;22.79;100.00
32237;BME280;18726;44.732;10.550;2023-05-11T09:15:38;100590.22;;;22.88;100.00
32237;BME280;18726;44.732;10.550;2023-05-11T09:18:48;100589.19;;;22.99;100.00
32237;BME280;18726;44.732;10.550;2023-05-11T09:21:52;100585.81;;;23.07;100.00
32237;BME280;18726;44.732;10.550;2023-05-11T09:24:56;100587.81;;;23.07;100.00
32237;BME280;18726;44.732;10.550;2023-05-11T09:27:59;100590.94;;;23.09;100.00
32237;BME280;18726;44.732;10.550;2023-05-11T09:31:03;100591.59;;;23.13;100.00
32237;BME280;18726;44.732;10.550;2023-05-11T09:37:16;100590.38;;;23.14;95.35
32237;BME280;18726;44.732;10.550;2023-05-11T09:40:20;100587.25;;;23.12;96.60
32237;BME280;18726;44.732;10.550;2023-05-11T09:43:26;100585.69;;;23.11;98.47
32237;BME280;18726;44.732;10.550;2023-05-11T09:46:30;100591.63;;;22.97;99.46
32237;BME280;18726;44.732;10.550;2023-05-11T09:49:33;100590.94;;;22.56;95.10
32237;BME280;18726;44.732;10.550;2023-05-11T09:52:48;100593.91;;;22.30;100.00
32237;BME280;18726;44.732;10.550;2023-05-11T09:55:54;100595.34;;;21.98;100.00
32237;BME280;18726;44.732;10.550;2023-05-11T09:58:58;100589.03;;;21.78;100.00
32237;BME280;18726;44.732;10.550;2023-05-11T10:05:21;100594.97;;;21.56;100.00
32237;BME280;18726;44.732;10.550;2023-05-11T10:08:30;100589.25;;;21.24;100.00
32237;BME280;18726;44.732;10.550;2023-05-11T10:11:37;100589.94;;;21.05;100.00
32237;BME280;18726;44.732;10.550;2023-05-11T10:14:43;100593.22;;;21.23;100.00
32237;BME280;18726;44.732;10.550;2023-05-11T10:17:47;100588.34;;;21.07;94.88
32237;BME280;18726;44.732;10.550;2023-05-11T10:20:51;100591.91;;;21.31;94.60
32237;BME280;18726;44.732;10.550;2023-05-11T10:23:56;100591.16;;;21.70;96.68
32237;BME280;18726;44.732;10.550;2023-05-11T10:27:00;100586.00;;;22.12;93.13
32237;BME280;18726;44.732;10.550;2023-05-11T10:30:06;100583.19;;;20.82;94.38
32237;BME280;18726;44.732;10.550;2023-05-11T10:33:10;100584.72;;;19.99;100.00
32237;BME280;18726;44.732;10.550;2023-05-11T10:36:14;100584.13;;;19.43;100.00
32237;BME280;18726;44.732;10.550;2023-05-11T10:39:18;100579.66;;;18.74;100.00
32237;BME280;18726;44.732;10.550;2023-05-11T10:42:48;100578.97;;;19.08;100.00
32237;BME280;18726;44.732;10.550;2023-05-11T10:46:12;100582.41;;;19.94;100.00
32237;BME280;18726;44.732;10.550;2023-05-11T10:52:39;100584.25;;;20.65;98.28
32237;BME280;18726;44.732;10.550;2023-05-11T10:59:24;100581.63;;;20.81;99.88
32237;BME280;18726;44.732;10.550;2023-05-11T11:02:32;100592.94;;;21.14;94.91
32237;BME280;18726;44.732;10.550;2023-05-11T11:05:36;100592.53;;;20.35;99.69
32237;BME280;18726;44.732;10.550;2023-05-11T11:08:54;100578.78;;;19.29;100.00
32237;BME280;18726;44.732;10.550;2023-05-11T11:12:08;100582.50;;;20.21;100.00
32237;BME280;18726;44.732;10.550;2023-05-11T11:15:12;100582.47;;;20.51;100.00
32237;BME280;18726;44.732;10.550;2023-05-11T11:18:27;100575.19;;;18.91;100.00
32237;BME280;18726;44.732;10.550;2023-05-11T11:21:49;100577.81;;;19.87;100.00
32237;BME280;18726;44.732;10.550;2023-05-11T11:24:52;100581.88;;;20.37;100.00
32237;BME280;18726;44.732;10.550;2023-05-11T11:27:57;100578.00;;;20.61;100.00
32237;BME280;18726;44.732;10.550;2023-05-11T11:38:00;100584.22;;;20.69;97.33
32237;BME280;18726;44.732;10.550;2023-05-11T11:41:06;100575.31;;;20.81;100.00
32237;BME280;18726;44.732;10.550;2023-05-11T11:44:20;100571.44;;;20.78;100.00
32237;BME280;18726;44.732;10.550;2023-05-11T11:47:24;100567.47;;;20.79;100.00
32237;BME280;18726;44.732;10.550;2023-05-11T11:50:29;100564.53;;;20.67;98.67
32237;BME280;18726;44.732;10.550;2023-05-11T11:56:40;100565.44;;;20.56;100.00
32237;BME280;18726;44.732;10.550;2023-05-11T11:59:47;100562.34;;;19.94;100.00
32237;BME280;18726;44.732;10.550;2023-05-11T12:02:52;100561.25;;;19.53;100.00
32237;BME280;18726;44.732;10.550;2023-05-11T12:05:59;100562.63;;;18.86;100.00
32237;BME280;18726;44.732;10.550;2023-05-11T12:09:04;100569.88;;;19.11;100.00
32237;BME280;18726;44.732;10.550;2023-05-11T12:12:08;100559.38;;;18.99;100.00
32237;BME280;18726;44.732;10.550;2023-05-11T12:15:28;100559.06;;;18.27;100.00
32237;BME280;18726;44.732;10.550;2023-05-11T12:18:32;100559.59;;;18.04;100.00
32237;BME280;18726;44.732;10.550;2023-05-11T12:21:36;100556.22;;;17.58;100.00
32237;BME280;18726;44.732;10.550;2023-05-11T12:24:39;100549.00;;;17.99;100.00
32237;BME280;18726;44.732;10.550;2023-05-11T12:27:48;100546.53;;;18.22;100.00
32237;BME280;18726;44.732;10.550;2023-05-11T12:30:56;100546.03;;;18.42;100.00
32237;BME280;18726;44.732;10.550;2023-05-11T12:33:59;100552.63;;;18.51;100.00
32237;BME280;18726;44.732;10.550;2023-05-11T12:37:04;100561.72;;;19.04;100.00
32237;BME280;18726;44.732;10.550;2023-05-11T12:40:11;100555.34;;;19.89;100.00
32237;BME280;18726;44.732;10.550;2023-05-11T12:43:17;100558.97;;;20.43;100.00
32237;BME280;18726;44.732;10.550;2023-05-11T12:46:21;100560.78;;;21.04;100.00
32237;BME280;18726;44.732;10.550;2023-05-11T12:49:25;100567.88;;;21.48;99.69
32237;BME280;18726;44.732;10.550;2023-05-11T12:52:29;100564.63;;;21.73;96.33
32237;BME280;18726;44.732;10.550;2023-05-11T12:55:33;100576.47;;;21.73;92.10
32237;BME280;18726;44.732;10.550;2023-05-11T12:58:37;100574.94;;;21.06;84.59
32237;BME280;18726;44.732;10.550;2023-05-11T13:01:41;100571.34;;;21.32;91.06
32237;BME280;18726;44.732;10.550;2023-05-11T13:04:46;100566.50;;;20.89;89.25
32237;BME280;18726;44.732;10.550;2023-05-11T13:07:58;100569.63;;;21.38;90.19
32237;BME280;18726;44.732;10.550;2023-05-11T13:11:22;100567.94;;;22.23;93.53
32237;BME280;18726;44.732;10.550;2023-05-11T13:14:29;100569.41;;;22.64;81.22
32237;BME280;18726;44.732;10.550;2023-05-11T13:17:38;100568.28;;;22.09;81.41
32237;BME280;18726;44.732;10.550;2023-05-11T13:20:43;100559.19;;;21.49;83.49
32237;BME280;18726;44.732;10.550;2023-05-11T13:23:48;100568.53;;;21.55;92.45
32237;BME280;18726;44.732;10.550;2023-05-11T13:26:53;100551.72;;;21.46;89.49
32237;BME280;18726;44.732;10.550;2023-05-11T13:29:58;100556.34;;;21.53;92.18
32237;BME280;18726;44.732;10.550;2023-05-11T13:33:02;100556.66;;;21.59;84.86
32237;BME280;18726;44.732;10.550;2023-05-11T13:36:06;100548.13;;;21.49;89.91
32237;BME280;18726;44.732;10.550;2023-05-11T13:39:10;100551.56;;;20.33;93.86
32237;BME280;18726;44.732;10.550;2023-05-11T13:42:14;100540.66;;;20.53;100.00
32237;BME280;18726;44.732;10.550;2023-05-11T13:45:17;100539.22;;;19.53;99.23
32237;BME280;18726;44.732;10.550;2023-05-11T13:48:21;100539.91;;;19.20;100.00
32237;BME280;18726;44.732;10.550;2023-05-11T13:51:24;100541.16;;;19.12;100.00
32237;BME280;18726;44.732;10.550;2023-05-11T13:54:28;100531.97;;;18.84;100.00
32237;BME280;18726;44.732;10.550;2023-05-11T13:57:34;100526.16;;;18.16;100.00
32237;BME280;18726;44.732;10.550;2023-05-11T14:00:37;100523.97;;;17.79;100.00
32237;BME280;18726;44.732;10.550;2023-05-11T14:03:42;100532.63;;;17.78;100.00
32237;BME280;18726;44.732;10.550;2023-05-11T14:06:47;100530.66;;;17.75;100.00
32237;BME280;18726;44.732;10.550;2023-05-11T14:09:50;100528.38;;;17.48;100.00
32237;BME280;18726;44.732;10.550;2023-05-11T14:12:54;100530.34;;;17.37;100.00
32237;BME280;18726;44.732;10.550;2023-05-11T14:15:57;100525.63;;;17.38;100.00
32237;BME280;18726;44.732;10.550;2023-05-11T14:19:01;100517.78;;;17.40;100.00
32237;BME280;18726;44.732;10.550;2023-05-11T14:22:04;100515.50;;;17.24;100.00
32237;BME280;18726;44.732;10.550;2023-05-11T14:25:08;100520.19;;;17.20;100.00
32237;BME280;18726;44.732;10.550;2023-05-11T14:28:12;100522.94;;;17.20;100.00
32237;BME280;18726;44.732;10.550;2023-05-11T14:31:15;100520.53;;;17.47;100.00
32237;BME280;18726;44.732;10.550;2023-05-11T14:34:19;100522.41;;;17.75;100.00
32237;BME280;18726;44.732;10.550;2023-05-11T14:37:22;100521.59;;;17.85;100.00
32237;BME280;18726;44.732;10.550;2023-05-11T14:40:25;100522.66;;;18.09;100.00
32237;BME280;18726;44.732;10.550;2023-05-11T14:43:29;100513.88;;;18.32;100.00
32237;BME280;18726;44.732;10.550;2023-05-11T14:46:33;100515.63;;;18.63;100.00
32237;BME280;18726;44.732;10.550;2023-05-11T14:49:37;100515.25;;;18.61;100.00
32237;BME280;18726;44.732;10.550;2023-05-11T14:52:40;100514.84;;;18.63;100.00
32237;BME280;18726;44.732;10.550;2023-05-11T14:55:44;100507.63;;;18.79;100.00
32237;BME280;18726;44.732;10.550;2023-05-11T14:58:47;100515.16;;;18.75;100.00
32237;BME280;18726;44.732;10.550;2023-05-11T15:01:51;100510.91;;;18.67;100.00
32237;BME280;18726;44.732;10.550;2023-05-11T15:04:55;100515.66;;;18.60;100.00
32237;BME280;18726;44.732;10.550;2023-05-11T15:07:59;100513.69;;;18.56;100.00
32237;BME280;18726;44.732;10.550;2023-05-11T15:11:03;100507.97;;;18.33;100.00
32237;BME280;18726;44.732;10.550;2023-05-11T15:14:07;100509.38;;;17.93;100.00
32237;BME280;18726;44.732;10.550;2023-05-11T15:17:10;100512.06;;;18.07;100.00
32237;BME280;18726;44.732;10.550;2023-05-11T15:20:15;100510.38;;;18.24;100.00
32237;BME280;18726;44.732;10.550;2023-05-11T15:23:20;100511.91;;;18.29;100.00
32237;BME280;18726;44.732;10.550;2023-05-11T15:26:23;100510.31;;;18.35;100.00
32237;BME280;18726;44.732;10.550;2023-05-11T15:29:27;100500.16;;;18.25;100.00
32237;BME280;18726;44.732;10.550;2023-05-11T15:32:30;100506.56;;;18.07;100.00
32237;BME280;18726;44.732;10.550;2023-05-11T15:35:34;100508.56;;;18.00;100.00
32237;BME280;18726;44.732;10.550;2023-05-11T15:38:39;100507.84;;;17.88;100.00
32237;BME280;18726;44.732;10.550;2023-05-11T15:41:43;100502.00;;;17.79;100.00
32237;BME280;18726;44.732;10.550;2023-05-11T15:44:46;100504.72;;;17.86;100.00
32237;BME280;18726;44.732;10.550;2023-05-11T15:47:50;100496.41;;;17.94;100.00
32237;BME280;18726;44.732;10.550;2023-05-11T15:50:54;100494.13;;;17.85;100.00
32237;BME280;18726;44.732;10.550;2023-05-11T15:53:58;100498.03;;;17.84;100.00
32237;BME280;18726;44.732;10.550;2023-05-11T15:57:01;100496.72;;;18.13;100.00
32237;BME280;18726;44.732;10.550;2023-05-11T16:00:05;100500.44;;;17.64;100.00
32237;BME280;18726;44.732;10.550;2023-05-11T16:03:12;100491.97;;;17.23;100.00
32237;BME280;18726;44.732;10.550;2023-05-11T16:06:16;100496.28;;;17.17;100.00
32237;BME280;18726;44.732;10.550;2023-05-11T16:09:19;100496.69;;;17.12;100.00
32237;BME280;18726;44.732;10.550;2023-05-11T16:12:24;100498.28;;;16.77;100.00
32237;BME280;18726;44.732;10.550;2023-05-11T16:15:28;100497.88;;;16.90;100.00
32237;BME280;18726;44.732;10.550;2023-05-11T16:18:33;100500.59;;;17.11;100.00
32237;BME280;18726;44.732;10.550;2023-05-11T16:21:38;100504.56;;;16.88;100.00
32237;BME280;18726;44.732;10.550;2023-05-11T16:24:41;100513.19;;;16.98;100.00
32237;BME280;18726;44.732;10.550;2023-05-11T16:27:45;100503.00;;;16.87;100.00